sensor_id;sensor_type;location;lat;lon;timestamp;P1;durP1;ratioP1;P2;durP2;ratioP2
73454;SDS011;61690;51.824;6.306;2023-03-01T00:01:36;3.00;;;0.60;;
73454;SDS011;61690;51.824;6.306;2023-03-01T00:04:02;3.83;;;0.57;;
73454;SDS011;61690;51.824;6.306;2023-03-01T00:06:27;4.80;;;1.00;;
73454;SDS011;61690;51.824;6.306;2023-03-01T00:08:52;3.47;;;0.80;;
73454;SDS011;61690;51.824;6.306;2023-03-01T00:11:22;3.90;;;0.70;;
73454;SDS011;61690;51.824;6.306;2023-03-01T00:13:50;3.60;;;0.60;;
73454;SDS011;61690;51.824;6.306;2023-03-01T00:16:18;3.87;;;0.80;;
73454;SDS011;61690;51.824;6.306;2023-03-01T00:18:46;3.13;;;0.70;;
73454;SDS011;61690;51.824;6.306;2023-03-01T00:21:11;4.47;;;0.97;;
73454;SDS011;61690;51.824;6.306;2023-03-01T00:23:37;3.92;;;0.80;;
73454;SDS011;61690;51.824;6.306;2023-03-01T00:26:05;3.17;;;0.70;;
73454;SDS011;61690;51.824;6.306;2023-03-01T00:28:32;3.00;;;0.60;;
73454;SDS011;61690;51.824;6.306;2023-03-01T00:31:02;3.30;;;0.90;;
73454;SDS011;61690;51.824;6.306;2023-03-01T00:33:31;3.00;;;0.60;;
73454;SDS011;61690;51.824;6.306;2023-03-01T00:36:00;3.10;;;0.70;;
73454;SDS011;61690;51.824;6.306;2023-03-01T00:38:26;3.57;;;1.00;;
73454;SDS011;61690;51.824;6.306;2023-03-01T00:40:51;3.67;;;1.03;;
73454;SDS011;61690;51.824;6.306;2023-03-01T00:43:17;3.50;;;0.90;;
73454;SDS011;61690;51.824;6.306;2023-03-01T00:45:43;3.63;;;0.73;;
73454;SDS011;61690;51.824;6.306;2023-03-01T00:48:09;3.47;;;0.90;;
73454;SDS011;61690;51.824;6.306;2023-03-01T00:50:35;3.00;;;0.67;;
73454;SDS011;61690;51.824;6.306;2023-03-01T00:53:00;3.28;;;0.70;;
73454;SDS011;61690;51.824;6.306;2023-03-01T00:55:26;3.43;;;0.70;;
73454;SDS011;61690;51.824;6.306;2023-03-01T00:57:51;3.50;;;0.80;;
73454;SDS011;61690;51.824;6.306;2023-03-01T01:00:16;3.40;;;0.87;;
73454;SDS011;61690;51.824;6.306;2023-03-01T01:02:43;3.03;;;0.70;;
73454;SDS011;61690;51.824;6.306;2023-03-01T01:05:08;4.07;;;0.73;;
73454;SDS011;61690;51.824;6.306;2023-03-01T01:07:34;3.10;;;0.80;;
73454;SDS011;61690;51.824;6.306;2023-03-01T01:09:59;3.20;;;0.90;;
73454;SDS011;61690;51.824;6.306;2023-03-01T01:12:24;3.20;;;0.80;;
73454;SDS011;61690;51.824;6.306;2023-03-01T01:14:50;3.07;;;0.57;;
73454;SDS011;61690;51.824;6.306;2023-03-01T01:17:15;3.43;;;0.60;;
73454;SDS011;61690;51.824;6.306;2023-03-01T01:19:40;2.87;;;0.70;;
73454;SDS011;61690;51.824;6.306;2023-03-01T01:22:06;3.00;;;0.60;;
73454;SDS011;61690;51.824;6.306;2023-03-01T01:24:31;3.10;;;0.50;;
73454;SDS011;61690;51.824;6.306;2023-03-01T01:26:56;2.87;;;0.70;;
73454;SDS011;61690;51.824;6.306;2023-03-01T01:29:22;2.80;;;0.60;;
73454;SDS011;61690;51.824;6.306;2023-03-01T01:31:47;3.30;;;0.80;;
73454;SDS011;61690;51.824;6.306;2023-03-01T01:34:13;3.20;;;0.60;;
73454;SDS011;61690;51.824;6.306;2023-03-01T01:36:41;2.80;;;0.60;;
73454;SDS011;61690;51.824;6.306;2023-03-01T01:39:07;3.15;;;0.80;;
73454;SDS011;61690;51.824;6.306;2023-03-01T01:41:32;3.17;;;0.63;;
73454;SDS011;61690;51.824;6.306;2023-03-01T01:46:41;4.57;;;0.70;;
73454;SDS011;61690;51.824;6.306;2023-03-01T01:51:51;3.38;;;0.80;;
73454;SDS011;61690;51.824;6.306;2023-03-01T01:54:24;2.90;;;0.75;;
73454;SDS011;61690;51.824;6.306;2023-03-01T01:56:58;2.43;;;0.50;;
73454;SDS011;61690;51.824;6.306;2023-03-01T01:59:27;3.10;;;0.60;;
73454;SDS011;61690;51.824;6.306;2023-03-01T02:01:55;4.15;;;0.70;;
73454;SDS011;61690;51.824;6.306;2023-03-01T02:04:24;3.10;;;0.60;;
73454;SDS011;61690;51.824;6.306;2023-03-01T02:07:01;3.20;;;0.90;;
73454;SDS011;61690;51.824;6.306;2023-03-01T02:09:30;3.05;;;0.50;;
73454;SDS011;61690;51.824;6.306;2023-03-01T02:11:56;3.00;;;0.70;;
73454;SDS011;61690;51.824;6.306;2023-03-01T02:14:22;2.75;;;0.47;;
73454;SDS011;61690;51.824;6.306;2023-03-01T02:16:47;3.07;;;0.70;;
73454;SDS011;61690;51.824;6.306;2023-03-01T02:19:17;3.37;;;0.90;;
73454;SDS011;61690;51.824;6.306;2023-03-01T02:25:07;3.42;;;0.68;;
73454;SDS011;61690;51.824;6.306;2023-03-01T02:27:49;3.22;;;0.70;;
73454;SDS011;61690;51.824;6.306;2023-03-01T02:30:18;2.95;;;0.57;;
73454;SDS011;61690;51.824;6.306;2023-03-01T02:32:45;2.80;;;0.70;;
73454;SDS011;61690;51.824;6.306;2023-03-01T02:35:13;2.17;;;0.40;;
73454;SDS011;61690;51.824;6.306;2023-03-01T02:37:40;3.22;;;0.75;;
73454;SDS011;61690;51.824;6.306;2023-03-01T02:40:08;3.10;;;0.70;;
73454;SDS011;61690;51.824;6.306;2023-03-01T02:42:41;3.40;;;0.60;;
73454;SDS011;61690;51.824;6.306;2023-03-01T02:45:12;2.70;;;0.50;;
73454;SDS011;61690;51.824;6.306;2023-03-01T02:47:37;2.92;;;0.70;;
73454;SDS011;61690;51.824;6.306;2023-03-01T02:50:09;2.73;;;0.50;;
73454;SDS011;61690;51.824;6.306;2023-03-01T02:52:45;2.92;;;0.60;;
73454;SDS011;61690;51.824;6.306;2023-03-01T02:55:21;2.53;;;0.53;;
73454;SDS011;61690;51.824;6.306;2023-03-01T02:57:46;3.10;;;0.60;;
73454;SDS011;61690;51.824;6.306;2023-03-01T03:00:36;3.03;;;0.60;;
73454;SDS011;61690;51.824;6.306;2023-03-01T03:03:04;3.20;;;0.70;;
73454;SDS011;61690;51.824;6.306;2023-03-01T03:05:31;5.63;;;0.70;;
73454;SDS011;61690;51.824;6.306;2023-03-01T03:07:58;3.83;;;0.70;;
73454;SDS011;61690;51.824;6.306;2023-03-01T03:10:26;2.88;;;0.57;;
73454;SDS011;61690;51.824;6.306;2023-03-01T03:13:00;3.60;;;0.88;;
73454;SDS011;61690;51.824;6.306;2023-03-01T03:15:28;2.90;;;0.60;;
73454;SDS011;61690;51.824;6.306;2023-03-01T03:17:54;3.38;;;0.60;;
73454;SDS011;61690;51.824;6.306;2023-03-01T03:20:21;2.40;;;0.50;;
73454;SDS011;61690;51.824;6.306;2023-03-01T03:22:51;2.78;;;0.50;;
73454;SDS011;61690;51.824;6.306;2023-03-01T03:25:18;3.40;;;0.65;;
73454;SDS011;61690;51.824;6.306;2023-03-01T03:27:44;2.90;;;0.60;;
73454;SDS011;61690;51.824;6.306;2023-03-01T03:30:12;2.92;;;0.57;;
73454;SDS011;61690;51.824;6.306;2023-03-01T03:32:39;3.55;;;0.80;;
73454;SDS011;61690;51.824;6.306;2023-03-01T03:35:05;2.83;;;0.70;;
73454;SDS011;61690;51.824;6.306;2023-03-01T03:37:36;2.72;;;0.60;;
73454;SDS011;61690;51.824;6.306;2023-03-01T03:40:21;2.95;;;0.60;;
73454;SDS011;61690;51.824;6.306;2023-03-01T03:42:46;2.57;;;0.40;;
73454;SDS011;61690;51.824;6.306;2023-03-01T03:45:13;3.15;;;0.70;;
73454;SDS011;61690;51.824;6.306;2023-03-01T03:47:38;3.20;;;0.67;;
73454;SDS011;61690;51.824;6.306;2023-03-01T03:50:03;3.07;;;0.80;;
73454;SDS011;61690;51.824;6.306;2023-03-01T03:52:29;3.30;;;0.80;;
73454;SDS011;61690;51.824;6.306;2023-03-01T03:54:54;2.80;;;0.40;;
73454;SDS011;61690;51.824;6.306;2023-03-01T03:57:19;3.83;;;0.80;;
73454;SDS011;61690;51.824;6.306;2023-03-01T03:59:46;2.72;;;0.50;;
73454;SDS011;61690;51.824;6.306;2023-03-01T04:02:11;3.60;;;0.70;;
73454;SDS011;61690;51.824;6.306;2023-03-01T04:04:49;2.70;;;0.55;;
73454;SDS011;61690;51.824;6.306;2023-03-01T04:07:15;2.57;;;0.40;;
73454;SDS011;61690;51.824;6.306;2023-03-01T04:09:42;2.58;;;0.50;;
73454;SDS011;61690;51.824;6.306;2023-03-01T04:12:08;2.75;;;0.40;;
73454;SDS011;61690;51.824;6.306;2023-03-01T04:14:33;3.60;;;0.57;;
73454;SDS011;61690;51.824;6.306;2023-03-01T04:16:59;2.57;;;0.50;;
73454;SDS011;61690;51.824;6.306;2023-03-01T04:19:24;2.83;;;0.57;;
73454;SDS011;61690;51.824;6.306;2023-03-01T04:21:49;3.40;;;0.50;;
73454;SDS011;61690;51.824;6.306;2023-03-01T04:24:15;3.20;;;0.70;;
73454;SDS011;61690;51.824;6.306;2023-03-01T04:26:40;2.70;;;0.40;;
73454;SDS011;61690;51.824;6.306;2023-03-01T04:29:05;3.33;;;0.70;;
73454;SDS011;61690;51.824;6.306;2023-03-01T04:31:30;3.57;;;0.70;;
73454;SDS011;61690;51.824;6.306;2023-03-01T04:33:56;3.03;;;0.70;;
73454;SDS011;61690;51.824;6.306;2023-03-01T04:36:22;3.23;;;0.80;;
73454;SDS011;61690;51.824;6.306;2023-03-01T04:38:50;3.10;;;0.65;;
73454;SDS011;61690;51.824;6.306;2023-03-01T04:41:18;3.10;;;0.73;;
73454;SDS011;61690;51.824;6.306;2023-03-01T04:43:45;2.60;;;0.50;;
73454;SDS011;61690;51.824;6.306;2023-03-01T04:46:11;3.07;;;0.60;;
73454;SDS011;61690;51.824;6.306;2023-03-01T04:48:38;3.03;;;0.80;;
73454;SDS011;61690;51.824;6.306;2023-03-01T04:51:05;3.15;;;0.52;;
73454;SDS011;61690;51.824;6.306;2023-03-01T04:53:31;2.57;;;0.50;;
73454;SDS011;61690;51.824;6.306;2023-03-01T04:55:57;2.80;;;0.70;;
73454;SDS011;61690;51.824;6.306;2023-03-01T04:58:24;3.30;;;0.70;;
73454;SDS011;61690;51.824;6.306;2023-03-01T05:00:53;2.45;;;0.50;;
73454;SDS011;61690;51.824;6.306;2023-03-01T05:03:19;2.63;;;0.70;;
73454;SDS011;61690;51.824;6.306;2023-03-01T05:05:45;2.77;;;0.60;;
73454;SDS011;61690;51.824;6.306;2023-03-01T05:08:12;3.50;;;0.60;;
73454;SDS011;61690;51.824;6.306;2023-03-01T05:10:42;2.73;;;0.60;;
73454;SDS011;61690;51.824;6.306;2023-03-01T05:13:09;3.20;;;0.75;;
73454;SDS011;61690;51.824;6.306;2023-03-01T05:15:34;3.00;;;0.60;;
73454;SDS011;61690;51.824;6.306;2023-03-01T05:18:01;3.08;;;0.70;;
73454;SDS011;61690;51.824;6.306;2023-03-01T05:20:27;2.90;;;0.57;;
73454;SDS011;61690;51.824;6.306;2023-03-01T05:22:54;3.20;;;0.88;;
73454;SDS011;61690;51.824;6.306;2023-03-01T05:25:22;2.83;;;0.80;;
73454;SDS011;61690;51.824;6.306;2023-03-01T05:27:47;9.70;;;6.20;;
73454;SDS011;61690;51.824;6.306;2023-03-01T05:30:13;8.00;;;4.13;;
73454;SDS011;61690;51.824;6.306;2023-03-01T05:32:40;6.10;;;3.47;;
73454;SDS011;61690;51.824;6.306;2023-03-01T05:35:06;7.60;;;3.90;;
73454;SDS011;61690;51.824;6.306;2023-03-01T05:37:31;6.82;;;3.30;;
73454;SDS011;61690;51.824;6.306;2023-03-01T05:39:57;6.13;;;2.80;;
73454;SDS011;61690;51.824;6.306;2023-03-01T05:42:22;8.43;;;3.00;;
73454;SDS011;61690;51.824;6.306;2023-03-01T05:44:47;6.37;;;2.50;;
73454;SDS011;61690;51.824;6.306;2023-03-01T05:47:12;5.47;;;2.60;;
73454;SDS011;61690;51.824;6.306;2023-03-01T05:49:38;5.43;;;2.60;;
73454;SDS011;61690;51.824;6.306;2023-03-01T05:52:03;6.17;;;2.10;;
73454;SDS011;61690;51.824;6.306;2023-03-01T05:54:28;6.23;;;2.30;;
73454;SDS011;61690;51.824;6.306;2023-03-01T05:56:54;6.97;;;2.00;;
73454;SDS011;61690;51.824;6.306;2023-03-01T05:59:20;4.73;;;2.13;;
73454;SDS011;61690;51.824;6.306;2023-03-01T06:01:45;5.30;;;2.17;;
73454;SDS011;61690;51.824;6.306;2023-03-01T06:04:11;5.00;;;2.20;;
73454;SDS011;61690;51.824;6.306;2023-03-01T06:06:36;5.90;;;1.90;;
73454;SDS011;61690;51.824;6.306;2023-03-01T06:09:02;4.17;;;1.70;;
73454;SDS011;61690;51.824;6.306;2023-03-01T06:11:28;4.80;;;1.60;;
73454;SDS011;61690;51.824;6.306;2023-03-01T06:13:53;5.03;;;1.80;;
73454;SDS011;61690;51.824;6.306;2023-03-01T06:16:19;5.07;;;1.70;;
73454;SDS011;61690;51.824;6.306;2023-03-01T06:18:44;5.15;;;1.85;;
73454;SDS011;61690;51.824;6.306;2023-03-01T06:21:09;5.07;;;1.53;;
73454;SDS011;61690;51.824;6.306;2023-03-01T06:23:35;4.97;;;1.40;;
73454;SDS011;61690;51.824;6.306;2023-03-01T06:26:00;4.57;;;1.70;;
73454;SDS011;61690;51.824;6.306;2023-03-01T06:28:30;4.57;;;1.80;;
73454;SDS011;61690;51.824;6.306;2023-03-01T06:30:55;6.40;;;1.83;;
73454;SDS011;61690;51.824;6.306;2023-03-01T06:33:20;5.27;;;1.57;;
73454;SDS011;61690;51.824;6.306;2023-03-01T06:35:48;5.20;;;1.50;;
73454;SDS011;61690;51.824;6.306;2023-03-01T06:38:13;4.60;;;1.40;;
73454;SDS011;61690;51.824;6.306;2023-03-01T06:40:43;4.30;;;1.55;;
73454;SDS011;61690;51.824;6.306;2023-03-01T06:43:09;5.43;;;1.60;;
73454;SDS011;61690;51.824;6.306;2023-03-01T06:45:34;5.00;;;1.60;;
73454;SDS011;61690;51.824;6.306;2023-03-01T06:48:06;4.20;;;1.50;;
73454;SDS011;61690;51.824;6.306;2023-03-01T06:50:32;4.73;;;1.80;;
73454;SDS011;61690;51.824;6.306;2023-03-01T06:52:58;6.57;;;1.90;;
73454;SDS011;61690;51.824;6.306;2023-03-01T06:55:24;5.28;;;1.63;;
73454;SDS011;61690;51.824;6.306;2023-03-01T06:57:53;7.40;;;1.80;;
73454;SDS011;61690;51.824;6.306;2023-03-01T07:00:22;4.60;;;1.42;;
73454;SDS011;61690;51.824;6.306;2023-03-01T07:02:48;4.57;;;1.40;;
73454;SDS011;61690;51.824;6.306;2023-03-01T07:05:14;4.32;;;1.48;;
73454;SDS011;61690;51.824;6.306;2023-03-01T07:07:40;5.53;;;1.50;;
73454;SDS011;61690;51.824;6.306;2023-03-01T07:10:05;5.20;;;1.50;;
73454;SDS011;61690;51.824;6.306;2023-03-01T07:12:31;5.90;;;1.50;;
73454;SDS011;61690;51.824;6.306;2023-03-01T07:14:56;5.30;;;1.73;;
73454;SDS011;61690;51.824;6.306;2023-03-01T07:17:21;4.07;;;1.13;;
73454;SDS011;61690;51.824;6.306;2023-03-01T07:19:47;3.70;;;1.40;;
73454;SDS011;61690;51.824;6.306;2023-03-01T07:22:12;4.40;;;1.37;;
73454;SDS011;61690;51.824;6.306;2023-03-01T07:24:37;7.03;;;1.40;;
73454;SDS011;61690;51.824;6.306;2023-03-01T07:27:03;4.10;;;1.47;;
73454;SDS011;61690;51.824;6.306;2023-03-01T07:29:28;5.47;;;1.87;;
73454;SDS011;61690;51.824;6.306;2023-03-01T07:31:53;5.33;;;1.20;;
73454;SDS011;61690;51.824;6.306;2023-03-01T07:34:19;7.00;;;1.60;;
73454;SDS011;61690;51.824;6.306;2023-03-01T07:36:44;6.77;;;2.03;;
73454;SDS011;61690;51.824;6.306;2023-03-01T07:39:10;4.25;;;1.50;;
73454;SDS011;61690;51.824;6.306;2023-03-01T07:41:36;5.40;;;1.60;;
73454;SDS011;61690;51.824;6.306;2023-03-01T07:44:01;4.40;;;1.38;;
73454;SDS011;61690;51.824;6.306;2023-03-01T07:46:26;5.83;;;1.57;;
73454;SDS011;61690;51.824;6.306;2023-03-01T07:48:52;5.60;;;1.40;;
73454;SDS011;61690;51.824;6.306;2023-03-01T07:51:17;4.67;;;1.60;;
73454;SDS011;61690;51.824;6.306;2023-03-01T07:53:45;5.77;;;1.60;;
73454;SDS011;61690;51.824;6.306;2023-03-01T07:56:12;4.93;;;1.60;;
73454;SDS011;61690;51.824;6.306;2023-03-01T07:58:39;4.78;;;1.80;;
73454;SDS011;61690;51.824;6.306;2023-03-01T08:01:07;5.05;;;1.30;;
73454;SDS011;61690;51.824;6.306;2023-03-01T08:03:34;4.93;;;1.30;;
73454;SDS011;61690;51.824;6.306;2023-03-01T08:06:01;3.93;;;1.50;;
73454;SDS011;61690;51.824;6.306;2023-03-01T08:08:28;4.65;;;1.40;;
73454;SDS011;61690;51.824;6.306;2023-03-01T08:10:56;4.65;;;1.40;;
73454;SDS011;61690;51.824;6.306;2023-03-01T08:13:22;5.40;;;1.20;;
73454;SDS011;61690;51.824;6.306;2023-03-01T08:15:50;4.20;;;1.13;;
73454;SDS011;61690;51.824;6.306;2023-03-01T08:18:16;4.47;;;1.40;;
73454;SDS011;61690;51.824;6.306;2023-03-01T08:20:42;4.90;;;1.60;;
73454;SDS011;61690;51.824;6.306;2023-03-01T08:23:08;5.10;;;1.37;;
73454;SDS011;61690;51.824;6.306;2023-03-01T08:25:33;5.73;;;1.13;;
73454;SDS011;61690;51.824;6.306;2023-03-01T08:27:59;5.03;;;1.70;;
73454;SDS011;61690;51.824;6.306;2023-03-01T08:30:24;5.53;;;1.50;;
73454;SDS011;61690;51.824;6.306;2023-03-01T08:32:50;4.30;;;1.25;;
73454;SDS011;61690;51.824;6.306;2023-03-01T08:35:15;5.37;;;1.53;;
73454;SDS011;61690;51.824;6.306;2023-03-01T08:37:41;4.07;;;1.55;;
73454;SDS011;61690;51.824;6.306;2023-03-01T08:40:07;5.00;;;1.50;;
73454;SDS011;61690;51.824;6.306;2023-03-01T08:42:35;5.50;;;1.40;;
73454;SDS011;61690;51.824;6.306;2023-03-01T08:45:03;6.15;;;1.30;;
73454;SDS011;61690;51.824;6.306;2023-03-01T08:47:29;5.47;;;1.55;;
73454;SDS011;61690;51.824;6.306;2023-03-01T08:49:54;6.20;;;1.50;;
73454;SDS011;61690;51.824;6.306;2023-03-01T08:52:19;8.17;;;1.70;;
73454;SDS011;61690;51.824;6.306;2023-03-01T08:54:48;5.88;;;1.48;;
73454;SDS011;61690;51.824;6.306;2023-03-01T08:57:14;4.70;;;1.55;;
73454;SDS011;61690;51.824;6.306;2023-03-01T08:59:39;7.90;;;1.57;;
73454;SDS011;61690;51.824;6.306;2023-03-01T09:02:08;7.38;;;1.60;;
73454;SDS011;61690;51.824;6.306;2023-03-01T09:04:37;5.23;;;1.47;;
73454;SDS011;61690;51.824;6.306;2023-03-01T09:07:03;4.75;;;1.40;;
73454;SDS011;61690;51.824;6.306;2023-03-01T09:09:28;7.30;;;1.60;;
73454;SDS011;61690;51.824;6.306;2023-03-01T09:11:54;4.00;;;1.00;;
73454;SDS011;61690;51.824;6.306;2023-03-01T09:14:19;4.78;;;1.40;;
73454;SDS011;61690;51.824;6.306;2023-03-01T09:16:44;4.33;;;1.50;;
73454;SDS011;61690;51.824;6.306;2023-03-01T09:19:12;4.70;;;1.40;;
73454;SDS011;61690;51.824;6.306;2023-03-01T09:21:38;6.13;;;1.65;;
73454;SDS011;61690;51.824;6.306;2023-03-01T09:24:04;15.93;;;1.50;;
73454;SDS011;61690;51.824;6.306;2023-03-01T09:26:29;8.43;;;1.75;;
73454;SDS011;61690;51.824;6.306;2023-03-01T09:28:55;9.40;;;1.53;;
73454;SDS011;61690;51.824;6.306;2023-03-01T09:31:21;9.18;;;1.77;;
73454;SDS011;61690;51.824;6.306;2023-03-01T09:33:49;7.43;;;1.45;;
73454;SDS011;61690;51.824;6.306;2023-03-01T09:36:17;8.20;;;1.57;;
73454;SDS011;61690;51.824;6.306;2023-03-01T09:38:44;8.98;;;1.38;;
73454;SDS011;61690;51.824;6.306;2023-03-01T09:46:21;9.13;;;1.45;;
73454;SDS011;61690;51.824;6.306;2023-03-01T09:48:52;6.73;;;1.30;;
73454;SDS011;61690;51.824;6.306;2023-03-01T09:51:32;6.38;;;1.50;;
73454;SDS011;61690;51.824;6.306;2023-03-01T09:54:00;8.90;;;1.40;;
73454;SDS011;61690;51.824;6.306;2023-03-01T09:56:29;5.82;;;1.30;;
73454;SDS011;61690;51.824;6.306;2023-03-01T09:59:09;9.35;;;1.50;;
73454;SDS011;61690;51.824;6.306;2023-03-01T10:02:11;6.23;;;1.13;;
73454;SDS011;61690;51.824;6.306;2023-03-01T10:04:59;10.32;;;1.42;;
73454;SDS011;61690;51.824;6.306;2023-03-01T10:07:58;10.15;;;1.50;;
73454;SDS011;61690;51.824;6.306;2023-03-01T10:10:39;9.40;;;1.25;;
73454;SDS011;61690;51.824;6.306;2023-03-01T10:13:17;4.93;;;1.10;;
73454;SDS011;61690;51.824;6.306;2023-03-01T10:15:49;5.40;;;1.35;;
73454;SDS011;61690;51.824;6.306;2023-03-01T10:18:21;6.03;;;1.10;;
73454;SDS011;61690;51.824;6.306;2023-03-01T10:20:53;6.93;;;1.10;;
73454;SDS011;61690;51.824;6.306;2023-03-01T10:23:27;6.57;;;1.20;;
73454;SDS011;61690;51.824;6.306;2023-03-01T10:31:17;8.90;;;1.50;;
73454;SDS011;61690;51.824;6.306;2023-03-01T10:33:45;11.37;;;1.30;;
73454;SDS011;61690;51.824;6.306;2023-03-01T10:36:12;9.37;;;1.20;;
73454;SDS011;61690;51.824;6.306;2023-03-01T10:38:48;8.07;;;1.42;;
73454;SDS011;61690;51.824;6.306;2023-03-01T10:41:17;7.53;;;1.17;;
73454;SDS011;61690;51.824;6.306;2023-03-01T10:43:44;7.65;;;1.10;;
73454;SDS011;61690;51.824;6.306;2023-03-01T10:51:40;7.60;;;1.10;;
73454;SDS011;61690;51.824;6.306;2023-03-01T10:57:03;6.72;;;1.13;;
73454;SDS011;61690;51.824;6.306;2023-03-01T10:59:31;8.15;;;1.20;;
73454;SDS011;61690;51.824;6.306;2023-03-01T11:02:14;7.38;;;1.30;;
73454;SDS011;61690;51.824;6.306;2023-03-01T11:05:07;9.47;;;1.10;;
73454;SDS011;61690;51.824;6.306;2023-03-01T11:07:47;7.55;;;1.25;;
73454;SDS011;61690;51.824;6.306;2023-03-01T11:10:18;5.10;;;1.30;;
73454;SDS011;61690;51.824;6.306;2023-03-01T11:12:50;8.13;;;1.30;;
73454;SDS011;61690;51.824;6.306;2023-03-01T11:15:20;5.90;;;1.20;;
73454;SDS011;61690;51.824;6.306;2023-03-01T11:17:47;5.30;;;1.10;;
73454;SDS011;61690;51.824;6.306;2023-03-01T11:22:39;8.60;;;1.20;;
73454;SDS011;61690;51.824;6.306;2023-03-01T11:25:13;4.60;;;1.20;;
73454;SDS011;61690;51.824;6.306;2023-03-01T11:27:40;4.88;;;1.30;;
73454;SDS011;61690;51.824;6.306;2023-03-01T11:30:19;5.30;;;1.30;;
73454;SDS011;61690;51.824;6.306;2023-03-01T11:32:53;8.75;;;1.30;;
73454;SDS011;61690;51.824;6.306;2023-03-01T11:35:26;3.97;;;1.23;;
73454;SDS011;61690;51.824;6.306;2023-03-01T11:40:35;6.90;;;1.30;;
73454;SDS011;61690;51.824;6.306;2023-03-01T11:54:50;6.43;;;1.30;;
73454;SDS011;61690;51.824;6.306;2023-03-01T12:00:05;5.85;;;1.50;;
73454;SDS011;61690;51.824;6.306;2023-03-01T12:08:20;7.72;;;1.33;;
73454;SDS011;61690;51.824;6.306;2023-03-01T12:10:55;6.93;;;1.40;;
73454;SDS011;61690;51.824;6.306;2023-03-01T12:29:52;10.13;;;1.33;;
73454;SDS011;61690;51.824;6.306;2023-03-01T12:35:33;5.47;;;1.00;;
73454;SDS011;61690;51.824;6.306;2023-03-01T12:49:41;6.40;;;1.30;;
73454;SDS011;61690;51.824;6.306;2023-03-01T12:52:16;6.05;;;1.20;;
73454;SDS011;61690;51.824;6.306;2023-03-01T12:54:47;5.25;;;1.30;;
73454;SDS011;61690;51.824;6.306;2023-03-01T13:02:46;5.22;;;1.17;;
73454;SDS011;61690;51.824;6.306;2023-03-01T13:05:27;4.55;;;0.93;;
73454;SDS011;61690;51.824;6.306;2023-03-01T13:08:20;5.43;;;0.80;;
73454;SDS011;61690;51.824;6.306;2023-03-01T13:10:55;4.40;;;1.10;;
73454;SDS011;61690;51.824;6.306;2023-03-01T13:13:24;11.95;;;1.48;;
73454;SDS011;61690;51.824;6.306;2023-03-01T13:15:51;6.38;;;1.17;;
73454;SDS011;61690;51.824;6.306;2023-03-01T13:31:01;4.18;;;0.93;;
73454;SDS011;61690;51.824;6.306;2023-03-01T13:35:53;4.67;;;1.03;;
73454;SDS011;61690;51.824;6.306;2023-03-01T13:38:41;5.60;;;1.10;;
73454;SDS011;61690;51.824;6.306;2023-03-01T13:41:11;4.93;;;1.20;;
73454;SDS011;61690;51.824;6.306;2023-03-01T13:43:41;4.13;;;1.15;;
73454;SDS011;61690;51.824;6.306;2023-03-01T13:46:26;5.10;;;0.77;;
73454;SDS011;61690;51.824;6.306;2023-03-01T13:48:55;5.03;;;1.20;;
73454;SDS011;61690;51.824;6.306;2023-03-01T13:51:25;4.87;;;1.00;;
73454;SDS011;61690;51.824;6.306;2023-03-01T13:53:52;10.10;;;0.95;;
73454;SDS011;61690;51.824;6.306;2023-03-01T13:56:21;5.10;;;1.27;;
73454;SDS011;61690;51.824;6.306;2023-03-01T14:01:26;4.72;;;1.20;;
73454;SDS011;61690;51.824;6.306;2023-03-01T14:03:54;4.40;;;1.30;;
73454;SDS011;61690;51.824;6.306;2023-03-01T14:06:21;4.88;;;1.30;;
73454;SDS011;61690;51.824;6.306;2023-03-01T14:09:05;5.43;;;1.30;;
73454;SDS011;61690;51.824;6.306;2023-03-01T14:11:46;4.45;;;1.00;;
73454;SDS011;61690;51.824;6.306;2023-03-01T14:19:46;5.43;;;1.20;;
73454;SDS011;61690;51.824;6.306;2023-03-01T14:22:23;5.75;;;1.30;;
73454;SDS011;61690;51.824;6.306;2023-03-01T14:25:00;5.43;;;1.40;;
73454;SDS011;61690;51.824;6.306;2023-03-01T14:27:38;4.60;;;1.10;;
73454;SDS011;61690;51.824;6.306;2023-03-01T14:30:11;4.53;;;1.20;;
73454;SDS011;61690;51.824;6.306;2023-03-01T14:32:42;4.18;;;1.40;;
73454;SDS011;61690;51.824;6.306;2023-03-01T14:35:20;4.53;;;1.20;;
73454;SDS011;61690;51.824;6.306;2023-03-01T14:37:48;4.30;;;1.23;;
73454;SDS011;61690;51.824;6.306;2023-03-01T14:40:28;4.07;;;0.95;;
73454;SDS011;61690;51.824;6.306;2023-03-01T14:42:55;7.27;;;4.13;;
73454;SDS011;61690;51.824;6.306;2023-03-01T14:45:25;8.38;;;4.50;;
73454;SDS011;61690;51.824;6.306;2023-03-01T14:47:54;6.80;;;2.72;;
73454;SDS011;61690;51.824;6.306;2023-03-01T14:52:50;7.45;;;2.22;;
73454;SDS011;61690;51.824;6.306;2023-03-01T14:55:19;7.23;;;2.20;;
73454;SDS011;61690;51.824;6.306;2023-03-01T14:57:50;6.97;;;2.80;;
73454;SDS011;61690;51.824;6.306;2023-03-01T15:00:23;6.75;;;2.35;;
73454;SDS011;61690;51.824;6.306;2023-03-01T15:02:52;6.97;;;1.95;;
73454;SDS011;61690;51.824;6.306;2023-03-01T15:05:25;6.45;;;1.80;;
73454;SDS011;61690;51.824;6.306;2023-03-01T15:07:58;6.73;;;1.63;;
73454;SDS011;61690;51.824;6.306;2023-03-01T15:10:30;6.65;;;1.83;;
73454;SDS011;61690;51.824;6.306;2023-03-01T15:13:19;5.72;;;1.70;;
73454;SDS011;61690;51.824;6.306;2023-03-01T15:15:47;5.35;;;1.75;;
73454;SDS011;61690;51.824;6.306;2023-03-01T15:20:46;6.00;;;1.37;;
73454;SDS011;61690;51.824;6.306;2023-03-01T15:23:26;6.05;;;1.50;;
73454;SDS011;61690;51.824;6.306;2023-03-01T15:25:53;5.13;;;1.30;;
73454;SDS011;61690;51.824;6.306;2023-03-01T15:28:23;5.45;;;1.60;;
73454;SDS011;61690;51.824;6.306;2023-03-01T15:30:55;4.00;;;1.20;;
73454;SDS011;61690;51.824;6.306;2023-03-01T15:35:52;4.13;;;1.20;;
73454;SDS011;61690;51.824;6.306;2023-03-01T15:38:26;5.72;;;1.50;;
73454;SDS011;61690;51.824;6.306;2023-03-01T15:40:52;5.15;;;1.38;;
73454;SDS011;61690;51.824;6.306;2023-03-01T15:43:37;3.97;;;1.20;;
73454;SDS011;61690;51.824;6.306;2023-03-01T15:46:16;6.68;;;1.60;;
73454;SDS011;61690;51.824;6.306;2023-03-01T15:48:45;4.00;;;1.20;;
73454;SDS011;61690;51.824;6.306;2023-03-01T15:51:12;5.35;;;1.50;;
73454;SDS011;61690;51.824;6.306;2023-03-01T15:53:39;4.30;;;1.20;;
73454;SDS011;61690;51.824;6.306;2023-03-01T15:56:05;5.03;;;1.30;;
73454;SDS011;61690;51.824;6.306;2023-03-01T15:58:32;4.88;;;1.30;;
73454;SDS011;61690;51.824;6.306;2023-03-01T16:01:07;4.73;;;1.10;;
73454;SDS011;61690;51.824;6.306;2023-03-01T16:03:41;5.15;;;1.40;;
73454;SDS011;61690;51.824;6.306;2023-03-01T16:06:08;3.53;;;1.03;;
73454;SDS011;61690;51.824;6.306;2023-03-01T16:08:35;5.03;;;1.42;;
73454;SDS011;61690;51.824;6.306;2023-03-01T16:11:01;4.03;;;1.30;;
73454;SDS011;61690;51.824;6.306;2023-03-01T16:13:29;4.30;;;1.50;;
73454;SDS011;61690;51.824;6.306;2023-03-01T16:15:56;5.93;;;1.70;;
73454;SDS011;61690;51.824;6.306;2023-03-01T16:18:21;5.65;;;1.33;;
73454;SDS011;61690;51.824;6.306;2023-03-01T16:20:47;4.40;;;1.30;;
73454;SDS011;61690;51.824;6.306;2023-03-01T16:23:14;4.95;;;1.45;;
73454;SDS011;61690;51.824;6.306;2023-03-01T16:25:39;4.07;;;1.40;;
73454;SDS011;61690;51.824;6.306;2023-03-01T16:28:05;5.27;;;1.30;;
73454;SDS011;61690;51.824;6.306;2023-03-01T16:30:33;4.95;;;1.50;;
73454;SDS011;61690;51.824;6.306;2023-03-01T16:33:00;4.05;;;1.10;;
73454;SDS011;61690;51.824;6.306;2023-03-01T16:35:26;5.60;;;1.10;;
73454;SDS011;61690;51.824;6.306;2023-03-01T16:37:51;5.78;;;1.20;;
73454;SDS011;61690;51.824;6.306;2023-03-01T16:40:23;4.45;;;1.27;;
73454;SDS011;61690;51.824;6.306;2023-03-01T16:42:51;5.70;;;1.60;;
73454;SDS011;61690;51.824;6.306;2023-03-01T16:45:17;4.65;;;1.40;;
73454;SDS011;61690;51.824;6.306;2023-03-01T16:47:43;4.05;;;1.17;;
73454;SDS011;61690;51.824;6.306;2023-03-01T16:50:08;4.03;;;1.20;;
73454;SDS011;61690;51.824;6.306;2023-03-01T16:52:34;4.68;;;1.45;;
73454;SDS011;61690;51.824;6.306;2023-03-01T16:55:02;4.87;;;1.40;;
73454;SDS011;61690;51.824;6.306;2023-03-01T16:57:28;4.05;;;0.90;;